sensor_id;sensor_type;location;lat;lon;timestamp;P1;durP1;ratioP1;P2;durP2;ratioP2
57856;SDS011;43683;48.650;9.290;2023-03-24T00:00:59;5.53;;;2.72;;
57856;SDS011;43683;48.650;9.290;2023-03-24T00:03:25;6.45;;;3.00;;
57856;SDS011;43683;48.650;9.290;2023-03-24T00:08:22;8.95;;;3.67;;
57856;SDS011;43683;48.650;9.290;2023-03-24T00:10:47;5.40;;;3.47;;
57856;SDS011;43683;48.650;9.290;2023-03-24T00:13:15;5.85;;;3.30;;
57856;SDS011;43683;48.650;9.290;2023-03-24T00:15:40;5.20;;;2.72;;
57856;SDS011;43683;48.650;9.290;2023-03-24T00:18:06;3.50;;;2.60;;
57856;SDS011;43683;48.650;9.290;2023-03-24T00:20:34;3.78;;;2.35;;
57856;SDS011;43683;48.650;9.290;2023-03-24T00:23:00;4.03;;;2.33;;
57856;SDS011;43683;48.650;9.290;2023-03-24T00:25:27;3.00;;;2.00;;
57856;SDS011;43683;48.650;9.290;2023-03-24T00:27:56;7.13;;;2.28;;
57856;SDS011;43683;48.650;9.290;2023-03-24T00:30:22;3.53;;;2.13;;
57856;SDS011;43683;48.650;9.290;2023-03-24T00:32:49;2.97;;;1.97;;
57856;SDS011;43683;48.650;9.290;2023-03-24T00:35:15;3.20;;;2.03;;
57856;SDS011;43683;48.650;9.290;2023-03-24T00:37:41;4.82;;;2.88;;
57856;SDS011;43683;48.650;9.290;2023-03-24T00:40:10;3.60;;;2.00;;
57856;SDS011;43683;48.650;9.290;2023-03-24T00:42:38;3.83;;;2.20;;
57856;SDS011;43683;48.650;9.290;2023-03-24T00:45:05;2.58;;;2.08;;
57856;SDS011;43683;48.650;9.290;2023-03-24T00:47:33;3.60;;;2.03;;
57856;SDS011;43683;48.650;9.290;2023-03-24T00:50:05;2.35;;;1.88;;
57856;SDS011;43683;48.650;9.290;2023-03-24T00:52:39;2.72;;;2.10;;
57856;SDS011;43683;48.650;9.290;2023-03-24T00:55:08;5.25;;;2.00;;
57856;SDS011;43683;48.650;9.290;2023-03-24T00:57:34;2.78;;;2.10;;
57856;SDS011;43683;48.650;9.290;2023-03-24T01:00:04;2.08;;;1.80;;
57856;SDS011;43683;48.650;9.290;2023-03-24T01:02:43;4.10;;;2.00;;
57856;SDS011;43683;48.650;9.290;2023-03-24T01:05:10;5.60;;;3.00;;
57856;SDS011;43683;48.650;9.290;2023-03-24T01:07:38;2.80;;;2.10;;
57856;SDS011;43683;48.650;9.290;2023-03-24T01:12:33;3.13;;;2.47;;
57856;SDS011;43683;48.650;9.290;2023-03-24T01:15:02;6.35;;;2.90;;
57856;SDS011;43683;48.650;9.290;2023-03-24T01:17:43;10.05;;;3.40;;
57856;SDS011;43683;48.650;9.290;2023-03-24T01:20:11;7.57;;;3.28;;
57856;SDS011;43683;48.650;9.290;2023-03-24T01:22:37;6.95;;;2.90;;
57856;SDS011;43683;48.650;9.290;2023-03-24T01:25:05;6.85;;;2.83;;
57856;SDS011;43683;48.650;9.290;2023-03-24T01:27:33;5.45;;;2.47;;
57856;SDS011;43683;48.650;9.290;2023-03-24T01:30:00;5.20;;;2.50;;
57856;SDS011;43683;48.650;9.290;2023-03-24T01:32:27;8.65;;;2.75;;
57856;SDS011;43683;48.650;9.290;2023-03-24T01:34:53;4.80;;;2.57;;
57856;SDS011;43683;48.650;9.290;2023-03-24T01:37:19;4.25;;;2.50;;
57856;SDS011;43683;48.650;9.290;2023-03-24T01:39:44;4.97;;;2.47;;
57856;SDS011;43683;48.650;9.290;2023-03-24T01:42:21;3.67;;;2.80;;
57856;SDS011;43683;48.650;9.290;2023-03-24T01:44:48;7.20;;;3.22;;
57856;SDS011;43683;48.650;9.290;2023-03-24T01:47:15;7.22;;;3.28;;
57856;SDS011;43683;48.650;9.290;2023-03-24T01:49:46;8.55;;;3.95;;
57856;SDS011;43683;48.650;9.290;2023-03-24T01:52:17;7.07;;;3.40;;
57856;SDS011;43683;48.650;9.290;2023-03-24T01:54:49;8.95;;;3.40;;
57856;SDS011;43683;48.650;9.290;2023-03-24T01:57:25;6.70;;;3.10;;
57856;SDS011;43683;48.650;9.290;2023-03-24T01:59:54;6.18;;;2.80;;
57856;SDS011;43683;48.650;9.290;2023-03-24T02:02:22;5.38;;;3.00;;
57856;SDS011;43683;48.650;9.290;2023-03-24T02:04:52;3.63;;;2.70;;
57856;SDS011;43683;48.650;9.290;2023-03-24T02:07:30;7.60;;;3.53;;
57856;SDS011;43683;48.650;9.290;2023-03-24T02:10:03;7.15;;;3.70;;
57856;SDS011;43683;48.650;9.290;2023-03-24T02:12:37;9.82;;;3.75;;
57856;SDS011;43683;48.650;9.290;2023-03-24T02:15:03;14.45;;;5.20;;
57856;SDS011;43683;48.650;9.290;2023-03-24T02:25:12;12.73;;;5.45;;
57856;SDS011;43683;48.650;9.290;2023-03-24T02:27:57;9.32;;;4.10;;
57856;SDS011;43683;48.650;9.290;2023-03-24T02:44:27;3.00;;;2.28;;
57856;SDS011;43683;48.650;9.290;2023-03-24T02:47:02;3.67;;;2.45;;
57856;SDS011;43683;48.650;9.290;2023-03-24T02:55:03;2.72;;;2.10;;
57856;SDS011;43683;48.650;9.290;2023-03-24T02:57:43;3.15;;;1.95;;
57856;SDS011;43683;48.650;9.290;2023-03-24T03:00:29;3.08;;;1.80;;
57856;SDS011;43683;48.650;9.290;2023-03-24T03:03:02;3.42;;;1.92;;
57856;SDS011;43683;48.650;9.290;2023-03-24T03:05:38;3.05;;;1.92;;
57856;SDS011;43683;48.650;9.290;2023-03-24T03:08:09;3.40;;;1.80;;
57856;SDS011;43683;48.650;9.290;2023-03-24T03:10:39;4.47;;;2.10;;
57856;SDS011;43683;48.650;9.290;2023-03-24T03:13:09;3.17;;;1.98;;
57856;SDS011;43683;48.650;9.290;2023-03-24T03:16:09;2.40;;;1.60;;
57856;SDS011;43683;48.650;9.290;2023-03-24T03:18:43;4.88;;;1.90;;
57856;SDS011;43683;48.650;9.290;2023-03-24T03:21:16;2.47;;;1.75;;
57856;SDS011;43683;48.650;9.290;2023-03-24T03:23:46;3.20;;;1.80;;
57856;SDS011;43683;48.650;9.290;2023-03-24T03:26:17;3.63;;;2.40;;
57856;SDS011;43683;48.650;9.290;2023-03-24T03:28:48;2.50;;;1.70;;
57856;SDS011;43683;48.650;9.290;2023-03-24T03:31:22;3.05;;;1.85;;
57856;SDS011;43683;48.650;9.290;2023-03-24T03:39:46;2.80;;;1.60;;
57856;SDS011;43683;48.650;9.290;2023-03-24T03:42:16;2.75;;;1.90;;
57856;SDS011;43683;48.650;9.290;2023-03-24T03:44:42;2.90;;;2.13;;
57856;SDS011;43683;48.650;9.290;2023-03-24T03:47:08;2.45;;;1.83;;
57856;SDS011;43683;48.650;9.290;2023-03-24T03:49:33;2.85;;;1.88;;
57856;SDS011;43683;48.650;9.290;2023-03-24T03:52:01;3.03;;;1.90;;
57856;SDS011;43683;48.650;9.290;2023-03-24T03:54:26;1.85;;;1.60;;
57856;SDS011;43683;48.650;9.290;2023-03-24T03:56:53;2.70;;;1.85;;
57856;SDS011;43683;48.650;9.290;2023-03-24T04:01:57;2.53;;;1.70;;
57856;SDS011;43683;48.650;9.290;2023-03-24T04:04:45;4.13;;;1.67;;
57856;SDS011;43683;48.650;9.290;2023-03-24T04:16:19;4.57;;;2.00;;
57856;SDS011;43683;48.650;9.290;2023-03-24T04:19:11;1.85;;;1.63;;
57856;SDS011;43683;48.650;9.290;2023-03-24T04:24:31;2.42;;;2.00;;
57856;SDS011;43683;48.650;9.290;2023-03-24T04:30:25;2.33;;;1.63;;
57856;SDS011;43683;48.650;9.290;2023-03-24T04:33:16;1.85;;;1.65;;
57856;SDS011;43683;48.650;9.290;2023-03-24T04:35:51;4.38;;;2.28;;
57856;SDS011;43683;48.650;9.290;2023-03-24T04:38:42;3.75;;;1.88;;
57856;SDS011;43683;48.650;9.290;2023-03-24T04:41:10;3.47;;;1.98;;
57856;SDS011;43683;48.650;9.290;2023-03-24T04:43:42;3.28;;;1.80;;
57856;SDS011;43683;48.650;9.290;2023-03-24T04:46:09;4.75;;;2.38;;
57856;SDS011;43683;48.650;9.290;2023-03-24T04:48:35;4.15;;;2.10;;
57856;SDS011;43683;48.650;9.290;2023-03-24T04:51:01;3.08;;;2.00;;
57856;SDS011;43683;48.650;9.290;2023-03-24T04:53:28;3.75;;;2.40;;
57856;SDS011;43683;48.650;9.290;2023-03-24T04:55:59;3.10;;;2.03;;
57856;SDS011;43683;48.650;9.290;2023-03-24T04:58:32;4.57;;;2.47;;
57856;SDS011;43683;48.650;9.290;2023-03-24T05:00:57;6.82;;;3.10;;
57856;SDS011;43683;48.650;9.290;2023-03-24T05:03:23;4.47;;;2.40;;
57856;SDS011;43683;48.650;9.290;2023-03-24T05:05:50;4.55;;;2.47;;
57856;SDS011;43683;48.650;9.290;2023-03-24T05:08:16;4.15;;;2.40;;
57856;SDS011;43683;48.650;9.290;2023-03-24T05:10:43;3.88;;;2.10;;
57856;SDS011;43683;48.650;9.290;2023-03-24T05:13:09;1.92;;;1.63;;
57856;SDS011;43683;48.650;9.290;2023-03-24T05:15:34;3.72;;;1.80;;
57856;SDS011;43683;48.650;9.290;2023-03-24T05:18:00;3.20;;;1.70;;
57856;SDS011;43683;48.650;9.290;2023-03-24T05:20:26;1.77;;;1.33;;
57856;SDS011;43683;48.650;9.290;2023-03-24T05:22:53;3.33;;;1.67;;
57856;SDS011;43683;48.650;9.290;2023-03-24T05:25:19;3.15;;;1.88;;
57856;SDS011;43683;48.650;9.290;2023-03-24T05:27:45;1.92;;;1.23;;
57856;SDS011;43683;48.650;9.290;2023-03-24T05:30:11;2.55;;;1.75;;
57856;SDS011;43683;48.650;9.290;2023-03-24T05:32:37;1.58;;;1.48;;
57856;SDS011;43683;48.650;9.290;2023-03-24T05:35:03;1.58;;;1.38;;
57856;SDS011;43683;48.650;9.290;2023-03-24T05:37:29;2.27;;;1.63;;
57856;SDS011;43683;48.650;9.290;2023-03-24T05:39:55;2.38;;;1.75;;
57856;SDS011;43683;48.650;9.290;2023-03-24T05:42:21;3.63;;;1.70;;
57856;SDS011;43683;48.650;9.290;2023-03-24T05:44:46;3.47;;;2.00;;
57856;SDS011;43683;48.650;9.290;2023-03-24T05:47:12;4.95;;;2.55;;
57856;SDS011;43683;48.650;9.290;2023-03-24T05:52:08;3.40;;;2.20;;
57856;SDS011;43683;48.650;9.290;2023-03-24T05:54:35;3.78;;;1.92;;
57856;SDS011;43683;48.650;9.290;2023-03-24T05:57:03;2.35;;;1.90;;
57856;SDS011;43683;48.650;9.290;2023-03-24T05:59:29;2.25;;;1.75;;
57856;SDS011;43683;48.650;9.290;2023-03-24T06:01:54;2.90;;;1.80;;
57856;SDS011;43683;48.650;9.290;2023-03-24T06:04:23;3.20;;;1.95;;
57856;SDS011;43683;48.650;9.290;2023-03-24T06:06:49;2.63;;;1.92;;
57856;SDS011;43683;48.650;9.290;2023-03-24T06:09:15;3.45;;;2.33;;
57856;SDS011;43683;48.650;9.290;2023-03-24T06:11:41;3.20;;;2.08;;
57856;SDS011;43683;48.650;9.290;2023-03-24T06:14:07;4.10;;;2.20;;
57856;SDS011;43683;48.650;9.290;2023-03-24T06:16:33;3.30;;;2.08;;
57856;SDS011;43683;48.650;9.290;2023-03-24T06:19:02;4.57;;;2.10;;
57856;SDS011;43683;48.650;9.290;2023-03-24T06:21:28;3.55;;;2.00;;
57856;SDS011;43683;48.650;9.290;2023-03-24T06:23:55;2.90;;;2.03;;
57856;SDS011;43683;48.650;9.290;2023-03-24T06:26:22;2.78;;;1.73;;
57856;SDS011;43683;48.650;9.290;2023-03-24T06:28:48;3.13;;;2.00;;
57856;SDS011;43683;48.650;9.290;2023-03-24T06:33:44;2.33;;;2.00;;
57856;SDS011;43683;48.650;9.290;2023-03-24T06:36:10;3.53;;;1.92;;
57856;SDS011;43683;48.650;9.290;2023-03-24T06:38:36;3.08;;;2.00;;
57856;SDS011;43683;48.650;9.290;2023-03-24T06:41:03;3.28;;;1.90;;
57856;SDS011;43683;48.650;9.290;2023-03-24T06:43:29;2.70;;;1.90;;
57856;SDS011;43683;48.650;9.290;2023-03-24T06:45:55;4.03;;;2.00;;
57856;SDS011;43683;48.650;9.290;2023-03-24T06:48:21;2.70;;;1.98;;
57856;SDS011;43683;48.650;9.290;2023-03-24T06:50:48;3.45;;;1.92;;
57856;SDS011;43683;48.650;9.290;2023-03-24T06:53:13;3.28;;;1.90;;
57856;SDS011;43683;48.650;9.290;2023-03-24T06:55:39;5.40;;;2.45;;
57856;SDS011;43683;48.650;9.290;2023-03-24T06:58:05;3.78;;;1.90;;
57856;SDS011;43683;48.650;9.290;2023-03-24T07:00:30;3.80;;;2.10;;
57856;SDS011;43683;48.650;9.290;2023-03-24T07:02:56;2.97;;;2.00;;
57856;SDS011;43683;48.650;9.290;2023-03-24T07:05:22;5.30;;;2.45;;
57856;SDS011;43683;48.650;9.290;2023-03-24T07:07:47;3.88;;;2.38;;
57856;SDS011;43683;48.650;9.290;2023-03-24T07:10:14;4.50;;;1.88;;
57856;SDS011;43683;48.650;9.290;2023-03-24T07:12:39;4.20;;;2.55;;
57856;SDS011;43683;48.650;9.290;2023-03-24T07:15:05;3.92;;;1.90;;
57856;SDS011;43683;48.650;9.290;2023-03-24T07:17:33;3.67;;;1.92;;
57856;SDS011;43683;48.650;9.290;2023-03-24T07:19:59;3.28;;;2.30;;
57856;SDS011;43683;48.650;9.290;2023-03-24T07:22:25;3.42;;;2.10;;
57856;SDS011;43683;48.650;9.290;2023-03-24T07:24:50;3.80;;;2.40;;
57856;SDS011;43683;48.650;9.290;2023-03-24T07:27:16;3.20;;;2.08;;
57856;SDS011;43683;48.650;9.290;2023-03-24T07:29:42;5.45;;;2.33;;
57856;SDS011;43683;48.650;9.290;2023-03-24T07:32:08;3.28;;;1.90;;
57856;SDS011;43683;48.650;9.290;2023-03-24T07:34:34;3.88;;;2.40;;
57856;SDS011;43683;48.650;9.290;2023-03-24T07:37:00;3.67;;;2.20;;
57856;SDS011;43683;48.650;9.290;2023-03-24T07:39:26;3.60;;;2.10;;
57856;SDS011;43683;48.650;9.290;2023-03-24T07:41:52;3.28;;;2.17;;
57856;SDS011;43683;48.650;9.290;2023-03-24T07:44:17;2.38;;;1.98;;
57856;SDS011;43683;48.650;9.290;2023-03-24T07:46:43;3.88;;;2.42;;
57856;SDS011;43683;48.650;9.290;2023-03-24T07:49:09;3.45;;;2.20;;
57856;SDS011;43683;48.650;9.290;2023-03-24T07:51:35;4.50;;;2.42;;
57856;SDS011;43683;48.650;9.290;2023-03-24T07:54:01;3.42;;;2.40;;
57856;SDS011;43683;48.650;9.290;2023-03-24T07:56:27;4.80;;;2.92;;
57856;SDS011;43683;48.650;9.290;2023-03-24T07:58:52;5.20;;;2.80;;
57856;SDS011;43683;48.650;9.290;2023-03-24T08:01:18;3.63;;;2.25;;
57856;SDS011;43683;48.650;9.290;2023-03-24T08:03:43;3.60;;;2.50;;
57856;SDS011;43683;48.650;9.290;2023-03-24T08:06:09;3.10;;;2.70;;
57856;SDS011;43683;48.650;9.290;2023-03-24T08:08:36;11.63;;;3.38;;
57856;SDS011;43683;48.650;9.290;2023-03-24T08:11:02;9.10;;;3.90;;
57856;SDS011;43683;48.650;9.290;2023-03-24T08:13:28;5.88;;;3.20;;
57856;SDS011;43683;48.650;9.290;2023-03-24T08:15:54;7.38;;;3.40;;
57856;SDS011;43683;48.650;9.290;2023-03-24T08:18:20;7.07;;;2.88;;
57856;SDS011;43683;48.650;9.290;2023-03-24T08:20:47;7.57;;;3.60;;
57856;SDS011;43683;48.650;9.290;2023-03-24T08:23:13;5.07;;;3.03;;
57856;SDS011;43683;48.650;9.290;2023-03-24T08:25:40;8.48;;;4.00;;
57856;SDS011;43683;48.650;9.290;2023-03-24T08:28:05;9.63;;;3.50;;
57856;SDS011;43683;48.650;9.290;2023-03-24T08:30:31;6.88;;;3.40;;
57856;SDS011;43683;48.650;9.290;2023-03-24T08:32:58;7.40;;;3.47;;
57856;SDS011;43683;48.650;9.290;2023-03-24T08:35:27;5.30;;;2.75;;
57856;SDS011;43683;48.650;9.290;2023-03-24T08:37:55;3.70;;;2.38;;
57856;SDS011;43683;48.650;9.290;2023-03-24T08:40:23;4.38;;;2.55;;
57856;SDS011;43683;48.650;9.290;2023-03-24T08:42:50;3.90;;;2.30;;
57856;SDS011;43683;48.650;9.290;2023-03-24T08:45:25;4.40;;;2.55;;
57856;SDS011;43683;48.650;9.290;2023-03-24T08:47:55;4.90;;;3.00;;
57856;SDS011;43683;48.650;9.290;2023-03-24T08:50:23;5.90;;;2.38;;
57856;SDS011;43683;48.650;9.290;2023-03-24T08:52:52;3.92;;;2.55;;
57856;SDS011;43683;48.650;9.290;2023-03-24T08:55:18;4.25;;;2.90;;
57856;SDS011;43683;48.650;9.290;2023-03-24T08:57:45;5.55;;;3.33;;
57856;SDS011;43683;48.650;9.290;2023-03-24T09:00:11;4.60;;;2.80;;
57856;SDS011;43683;48.650;9.290;2023-03-24T09:02:39;6.68;;;2.80;;
57856;SDS011;43683;48.650;9.290;2023-03-24T09:05:09;4.07;;;1.98;;
57856;SDS011;43683;48.650;9.290;2023-03-24T09:07:35;6.32;;;3.10;;
57856;SDS011;43683;48.650;9.290;2023-03-24T09:10:01;4.32;;;2.95;;
57856;SDS011;43683;48.650;9.290;2023-03-24T09:12:28;4.80;;;2.60;;
57856;SDS011;43683;48.650;9.290;2023-03-24T09:14:54;4.55;;;2.65;;
57856;SDS011;43683;48.650;9.290;2023-03-24T09:17:20;5.28;;;2.45;;
57856;SDS011;43683;48.650;9.290;2023-03-24T09:19:45;4.07;;;2.60;;
57856;SDS011;43683;48.650;9.290;2023-03-24T09:22:11;3.83;;;2.38;;
57856;SDS011;43683;48.650;9.290;2023-03-24T09:24:37;3.83;;;2.40;;
57856;SDS011;43683;48.650;9.290;2023-03-24T09:27:03;3.78;;;2.00;;
57856;SDS011;43683;48.650;9.290;2023-03-24T09:29:28;6.93;;;2.85;;
57856;SDS011;43683;48.650;9.290;2023-03-24T09:31:54;5.63;;;2.42;;
57856;SDS011;43683;48.650;9.290;2023-03-24T09:34:21;5.07;;;2.70;;
57856;SDS011;43683;48.650;9.290;2023-03-24T09:36:47;5.72;;;2.15;;
57856;SDS011;43683;48.650;9.290;2023-03-24T09:39:13;4.53;;;2.35;;
57856;SDS011;43683;48.650;9.290;2023-03-24T09:41:39;3.63;;;2.30;;
57856;SDS011;43683;48.650;9.290;2023-03-24T09:44:14;3.65;;;1.77;;
57856;SDS011;43683;48.650;9.290;2023-03-24T09:46:56;2.90;;;1.90;;
57856;SDS011;43683;48.650;9.290;2023-03-24T09:49:27;3.15;;;1.70;;
57856;SDS011;43683;48.650;9.290;2023-03-24T09:52:04;2.50;;;1.67;;
57856;SDS011;43683;48.650;9.290;2023-03-24T09:54:53;3.15;;;1.58;;
57856;SDS011;43683;48.650;9.290;2023-03-24T09:57:38;3.72;;;1.58;;
57856;SDS011;43683;48.650;9.290;2023-03-24T10:00:16;1.63;;;1.42;;
57856;SDS011;43683;48.650;9.290;2023-03-24T10:02:48;3.42;;;1.60;;
57856;SDS011;43683;48.650;9.290;2023-03-24T10:05:14;2.55;;;1.55;;
57856;SDS011;43683;48.650;9.290;2023-03-24T10:07:53;1.63;;;1.23;;
57856;SDS011;43683;48.650;9.290;2023-03-24T10:13:30;1.75;;;1.40;;
57856;SDS011;43683;48.650;9.290;2023-03-24T10:19:09;2.08;;;1.77;;
57856;SDS011;43683;48.650;9.290;2023-03-24T10:21:54;1.55;;;1.10;;
57856;SDS011;43683;48.650;9.290;2023-03-24T10:24:35;1.13;;;0.90;;
57856;SDS011;43683;48.650;9.290;2023-03-24T10:27:36;2.70;;;1.20;;
57856;SDS011;43683;48.650;9.290;2023-03-24T10:30:18;1.17;;;1.05;;
57856;SDS011;43683;48.650;9.290;2023-03-24T10:32:47;0.88;;;0.88;;
57856;SDS011;43683;48.650;9.290;2023-03-24T10:35:14;1.92;;;1.10;;
57856;SDS011;43683;48.650;9.290;2023-03-24T10:37:43;2.00;;;1.00;;
57856;SDS011;43683;48.650;9.290;2023-03-24T10:40:19;1.25;;;1.10;;
57856;SDS011;43683;48.650;9.290;2023-03-24T10:42:48;1.52;;;1.15;;
57856;SDS011;43683;48.650;9.290;2023-03-24T10:45:18;1.88;;;1.30;;
57856;SDS011;43683;48.650;9.290;2023-03-24T10:47:52;1.77;;;0.83;;
57856;SDS011;43683;48.650;9.290;2023-03-24T10:50:23;1.65;;;1.00;;
57856;SDS011;43683;48.650;9.290;2023-03-24T10:52:50;2.85;;;1.05;;
57856;SDS011;43683;48.650;9.290;2023-03-24T10:55:18;1.95;;;1.40;;
57856;SDS011;43683;48.650;9.290;2023-03-24T10:57:47;1.13;;;1.00;;
57856;SDS011;43683;48.650;9.290;2023-03-24T11:00:15;1.17;;;1.00;;
57856;SDS011;43683;48.650;9.290;2023-03-24T11:03:09;1.10;;;1.00;;
57856;SDS011;43683;48.650;9.290;2023-03-24T11:05:39;2.10;;;1.10;;
57856;SDS011;43683;48.650;9.290;2023-03-24T11:08:17;2.35;;;0.98;;
57856;SDS011;43683;48.650;9.290;2023-03-24T11:10:53;0.90;;;0.90;;
57856;SDS011;43683;48.650;9.290;2023-03-24T11:16:07;0.70;;;0.70;;
57856;SDS011;43683;48.650;9.290;2023-03-24T11:18:53;0.70;;;0.70;;
57856;SDS011;43683;48.650;9.290;2023-03-24T11:21:27;1.45;;;0.77;;
57856;SDS011;43683;48.650;9.290;2023-03-24T11:23:56;3.15;;;1.00;;
57856;SDS011;43683;48.650;9.290;2023-03-24T11:26:30;0.70;;;0.68;;
57856;SDS011;43683;48.650;9.290;2023-03-24T11:29:05;0.90;;;0.90;;
57856;SDS011;43683;48.650;9.290;2023-03-24T11:31:37;1.80;;;0.73;;
57856;SDS011;43683;48.650;9.290;2023-03-24T11:34:08;1.02;;;0.90;;
57856;SDS011;43683;48.650;9.290;2023-03-24T11:39:31;1.08;;;0.90;;
57856;SDS011;43683;48.650;9.290;2023-03-24T11:42:05;0.50;;;0.50;;
57856;SDS011;43683;48.650;9.290;2023-03-24T11:44:49;1.00;;;0.80;;
57856;SDS011;43683;48.650;9.290;2023-03-24T11:47:32;0.70;;;0.70;;
57856;SDS011;43683;48.650;9.290;2023-03-24T11:52:36;0.70;;;0.70;;
57856;SDS011;43683;48.650;9.290;2023-03-24T11:55:15;0.80;;;0.70;;
57856;SDS011;43683;48.650;9.290;2023-03-24T11:57:48;2.55;;;0.68;;
57856;SDS011;43683;48.650;9.290;2023-03-24T12:00:22;1.23;;;0.80;;
57856;SDS011;43683;48.650;9.290;2023-03-24T12:05:57;0.70;;;0.70;;
57856;SDS011;43683;48.650;9.290;2023-03-24T12:08:51;0.52;;;0.52;;
57856;SDS011;43683;48.650;9.290;2023-03-24T12:14:14;0.60;;;0.60;;
57856;SDS011;43683;48.650;9.290;2023-03-24T12:16:59;0.68;;;0.68;;
57856;SDS011;43683;48.650;9.290;2023-03-24T12:25:22;0.80;;;0.80;;
57856;SDS011;43683;48.650;9.290;2023-03-24T12:33:39;0.70;;;0.70;;
57856;SDS011;43683;48.650;9.290;2023-03-24T12:36:23;0.80;;;0.70;;
57856;SDS011;43683;48.650;9.290;2023-03-24T12:39:13;0.73;;;0.73;;
57856;SDS011;43683;48.650;9.290;2023-03-24T12:52:58;0.90;;;0.60;;
57856;SDS011;43683;48.650;9.290;2023-03-24T12:55:50;0.70;;;0.70;;
57856;SDS011;43683;48.650;9.290;2023-03-24T13:04:01;0.52;;;0.52;;
57856;SDS011;43683;48.650;9.290;2023-03-24T13:07:07;0.45;;;0.45;;
57856;SDS011;43683;48.650;9.290;2023-03-24T13:09:42;1.48;;;0.85;;
57856;SDS011;43683;48.650;9.290;2023-03-24T13:12:14;0.50;;;0.50;;
57856;SDS011;43683;48.650;9.290;2023-03-24T13:15:01;0.77;;;0.50;;
57856;SDS011;43683;48.650;9.290;2023-03-24T13:20:27;0.80;;;0.57;;
57856;SDS011;43683;48.650;9.290;2023-03-24T13:23:00;0.50;;;0.50;;
57856;SDS011;43683;48.650;9.290;2023-03-24T13:25:44;0.73;;;0.60;;
57856;SDS011;43683;48.650;9.290;2023-03-24T13:28:23;0.50;;;0.50;;
57856;SDS011;43683;48.650;9.290;2023-03-24T13:30:54;2.78;;;0.80;;
57856;SDS011;43683;48.650;9.290;2023-03-24T13:33:22;0.47;;;0.40;;
57856;SDS011;43683;48.650;9.290;2023-03-24T13:40:59;1.40;;;0.50;;
57856;SDS011;43683;48.650;9.290;2023-03-24T13:43:29;0.70;;;0.52;;
57856;SDS011;43683;48.650;9.290;2023-03-24T13:46:05;0.60;;;0.60;;
57856;SDS011;43683;48.650;9.290;2023-03-24T13:48:41;1.58;;;0.70;;
57856;SDS011;43683;48.650;9.290;2023-03-24T13:53:49;0.50;;;0.50;;
57856;SDS011;43683;48.650;9.290;2023-03-24T13:56:21;0.60;;;0.60;;
57856;SDS011;43683;48.650;9.290;2023-03-24T14:02:22;0.60;;;0.60;;
57856;SDS011;43683;48.650;9.290;2023-03-24T14:05:11;1.20;;;0.60;;
57856;SDS011;43683;48.650;9.290;2023-03-24T14:10:38;1.48;;;0.60;;
57856;SDS011;43683;48.650;9.290;2023-03-24T14:23:23;2.58;;;0.60;;
57856;SDS011;43683;48.650;9.290;2023-03-24T14:25:59;0.70;;;0.63;;
57856;SDS011;43683;48.650;9.290;2023-03-24T14:28:32;0.60;;;0.60;;
57856;SDS011;43683;48.650;9.290;2023-03-24T14:31:10;0.77;;;0.60;;
57856;SDS011;43683;48.650;9.290;2023-03-24T14:36:17;1.17;;;0.80;;
57856;SDS011;43683;48.650;9.290;2023-03-24T14:38:49;0.50;;;0.50;;
57856;SDS011;43683;48.650;9.290;2023-03-24T14:41:16;2.25;;;0.70;;
57856;SDS011;43683;48.650;9.290;2023-03-24T14:43:56;0.70;;;0.70;;
57856;SDS011;43683;48.650;9.290;2023-03-24T14:46:43;0.77;;;0.60;;
57856;SDS011;43683;48.650;9.290;2023-03-24T14:51:51;0.40;;;0.40;;
57856;SDS011;43683;48.650;9.290;2023-03-24T14:54:26;0.40;;;0.40;;
57856;SDS011;43683;48.650;9.290;2023-03-24T14:57:14;0.52;;;0.52;;
57856;SDS011;43683;48.650;9.290;2023-03-24T14:59:46;0.40;;;0.40;;
57856;SDS011;43683;48.650;9.290;2023-03-24T15:07:43;1.35;;;0.70;;
57856;SDS011;43683;48.650;9.290;2023-03-24T15:12:42;0.60;;;0.60;;
57856;SDS011;43683;48.650;9.290;2023-03-24T15:15:13;0.45;;;0.45;;
57856;SDS011;43683;48.650;9.290;2023-03-24T15:17:43;0.98;;;0.68;;
57856;SDS011;43683;48.650;9.290;2023-03-24T15:22:49;0.80;;;0.65;;
57856;SDS011;43683;48.650;9.290;2023-03-24T15:25:18;0.50;;;0.50;;
57856;SDS011;43683;48.650;9.290;2023-03-24T15:27:51;0.70;;;0.70;;
57856;SDS011;43683;48.650;9.290;2023-03-24T15:30:17;0.45;;;0.45;;
57856;SDS011;43683;48.650;9.290;2023-03-24T15:32:43;0.70;;;0.70;;
57856;SDS011;43683;48.650;9.290;2023-03-24T15:35:12;0.70;;;0.70;;
57856;SDS011;43683;48.650;9.290;2023-03-24T15:37:41;1.15;;;0.60;;
57856;SDS011;43683;48.650;9.290;2023-03-24T15:42:56;2.00;;;0.90;;
57856;SDS011;43683;48.650;9.290;2023-03-24T15:45:31;0.82;;;0.70;;
57856;SDS011;43683;48.650;9.290;2023-03-24T15:48:17;0.60;;;0.60;;
57856;SDS011;43683;48.650;9.290;2023-03-24T15:50:55;0.80;;;0.65;;
57856;SDS011;43683;48.650;9.290;2023-03-24T15:53:24;0.80;;;0.80;;
57856;SDS011;43683;48.650;9.290;2023-03-24T15:58:29;1.65;;;0.95;;
57856;SDS011;43683;48.650;9.290;2023-03-24T16:00:59;2.20;;;0.95;;
57856;SDS011;43683;48.650;9.290;2023-03-24T16:03:28;1.70;;;1.20;;
57856;SDS011;43683;48.650;9.290;2023-03-24T16:05:55;1.08;;;0.75;;
57856;SDS011;43683;48.650;9.290;2023-03-24T16:08:25;0.80;;;0.80;;
57856;SDS011;43683;48.650;9.290;2023-03-24T16:10:57;1.95;;;1.33;;
57856;SDS011;43683;48.650;9.290;2023-03-24T16:13:24;1.98;;;0.90;;
57856;SDS011;43683;48.650;9.290;2023-03-24T16:20:58;0.88;;;0.77;;
57856;SDS011;43683;48.650;9.290;2023-03-24T16:23:24;1.10;;;1.00;;
57856;SDS011;43683;48.650;9.290;2023-03-24T16:25:50;0.73;;;0.73;;
57856;SDS011;43683;48.650;9.290;2023-03-24T16:28:17;1.13;;;0.80;;
57856;SDS011;43683;48.650;9.290;2023-03-24T16:30:44;0.70;;;0.70;;
57856;SDS011;43683;48.650;9.290;2023-03-24T16:33:12;1.38;;;0.80;;
57856;SDS011;43683;48.650;9.290;2023-03-24T16:35:39;0.80;;;0.80;;
57856;SDS011;43683;48.650;9.290;2023-03-24T16:38:04;1.27;;;0.85;;
57856;SDS011;43683;48.650;9.290;2023-03-24T16:43:00;1.20;;;0.88;;
57856;SDS011;43683;48.650;9.290;2023-03-24T16:45:26;0.70;;;0.70;;
57856;SDS011;43683;48.650;9.290;2023-03-24T16:47:53;1.10;;;1.00;;
57856;SDS011;43683;48.650;9.290;2023-03-24T16:50:33;1.40;;;1.00;;
57856;SDS011;43683;48.650;9.290;2023-03-24T16:53:01;0.85;;;0.82;;
57856;SDS011;43683;48.650;9.290;2023-03-24T16:57:54;0.77;;;0.75;;
57856;SDS011;43683;48.650;9.290;2023-03-24T17:00:20;0.77;;;0.70;;
57856;SDS011;43683;48.650;9.290;2023-03-24T17:02:46;0.80;;;0.80;;
57856;SDS011;43683;48.650;9.290;2023-03-24T17:07:48;1.00;;;0.90;;
57856;SDS011;43683;48.650;9.290;2023-03-24T17:10:14;1.00;;;0.90;;
57856;SDS011;43683;48.650;9.290;2023-03-24T17:12:40;0.70;;;0.70;;
57856;SDS011;43683;48.650;9.290;2023-03-24T17:15:06;0.65;;;0.65;;
57856;SDS011;43683;48.650;9.290;2023-03-24T17:17:34;2.03;;;1.25;;
57856;SDS011;43683;48.650;9.290;2023-03-24T17:20:00;0.88;;;0.88;;
57856;SDS011;43683;48.650;9.290;2023-03-24T17:22:25;1.73;;;0.80;;
57856;SDS011;43683;48.650;9.290;2023-03-24T17:24:51;1.20;;;1.10;;
57856;SDS011;43683;48.650;9.290;2023-03-24T17:27:21;1.17;;;0.90;;
57856;SDS011;43683;48.650;9.290;2023-03-24T17:29:47;1.08;;;0.93;;
57856;SDS011;43683;48.650;9.290;2023-03-24T17:32:13;1.48;;;1.00;;
57856;SDS011;43683;48.650;9.290;2023-03-24T17:34:40;1.05;;;0.98;;
57856;SDS011;43683;48.650;9.290;2023-03-24T17:37:06;1.38;;;1.00;;
57856;SDS011;43683;48.650;9.290;2023-03-24T17:39:32;1.25;;;1.13;;
57856;SDS011;43683;48.650;9.290;2023-03-24T17:41:57;2.08;;;1.50;;
57856;SDS011;43683;48.650;9.290;2023-03-24T17:44:25;2.35;;;1.30;;
57856;SDS011;43683;48.650;9.290;2023-03-24T17:46:51;1.80;;;1.10;;
57856;SDS011;43683;48.650;9.290;2023-03-24T17:49:17;1.15;;;1.00;;
57856;SDS011;43683;48.650;9.290;2023-03-24T17:51:43;2.47;;;1.45;;
57856;SDS011;43683;48.650;9.290;2023-03-24T17:54:08;1.75;;;1.30;;
57856;SDS011;43683;48.650;9.290;2023-03-24T17:56:34;1.38;;;1.27;;